Time;durP1;ratioP1;P1;durP2;ratioP2;P2;SDS_P1;SDS_P2;PMS_P1;PMS_P2;Temp;Humidity;BMP_temperature;BMP_pressure;BME280_temperature;BME280_humidity;BME280_pressure;Samples;Min_cycle;Max_cycle;Signal;HPM_P1;HPM_P2
2023/02/03 00:01:27;;;;;;;9.00;3.17;;;;;;;;;;5027287;28;20345;-63
2023/02/03 00:03:52;;;;;;;9.63;3.40;;;;;;;;;;5028442;28;20041;-63
2023/02/03 00:06:17;;;;;;;8.65;3.13;;;;;;;;;;5030089;28;20025;-62
2023/02/03 00:08:42;;;;;;;8.43;3.10;;;;;;;;;;5037634;28;20040;-63
2023/02/03 00:11:08;;;;;;;12.40;3.60;;;;;;;;;;5046268;28;20036;-64
2023/02/03 00:13:34;;;;;;;8.93;3.60;;;;;;;;;;5043585;28;20541;-64
2023/02/03 00:16:00;;;;;;;12.52;3.45;;;;;;;;;;5043260;28;20024;-64
2023/02/03 00:18:26;;;;;;;8.82;3.35;;;;;;;;;;5043678;28;20060;-64
2023/02/03 00:20:51;;;;;;;10.93;3.67;;;;;;;;;;5042809;28;20067;-64
2023/02/03 00:23:16;;;;;;;10.32;3.35;;;;;;;;;;5046930;28;20041;-64
2023/02/03 00:25:41;;;;;;;7.00;3.08;;;;;;;;;;5031724;28;20044;-63
2023/02/03 00:28:06;;;;;;;7.83;2.67;;;;;;;;;;5029239;28;20394;-63
2023/02/03 00:30:34;;;;;;;9.32;3.35;;;;;;;;;;5026820;28;20105;-62
2023/02/03 00:33:00;;;;;;;6.93;2.80;;;;;;;;;;5028253;28;20457;-63
2023/02/03 00:35:25;;;;;;;8.82;3.00;;;;;;;;;;5029392;28;20092;-64
2023/02/03 00:37:52;;;;;;;10.52;3.80;;;;;;;;;;5028713;28;20254;-65
2023/02/03 00:40:17;;;;;;;11.48;3.40;;;;;;;;;;5029459;28;20108;-63
2023/02/03 00:42:42;;;;;;;7.63;2.72;;;;;;;;;;5029759;28;20124;-64
2023/02/03 00:45:08;;;;;;;9.77;3.40;;;;;;;;;;5027587;28;20025;-63
2023/02/03 00:47:33;;;;;;;8.32;3.08;;;;;;;;;;5025120;28;20443;-63
2023/02/03 00:49:58;;;;;;;10.55;3.17;;;;;;;;;;5028743;28;20017;-62
2023/02/03 00:52:23;;;;;;;11.33;3.20;;;;;;;;;;5028599;28;20196;-64
2023/02/03 00:54:48;;;;;;;9.88;2.85;;;;;;;;;;5028129;28;20021;-63
2023/02/03 00:57:13;;;;;;;8.47;3.23;;;;;;;;;;5028643;28;20096;-63
2023/02/03 00:59:39;;;;;;;9.20;3.40;;;;;;;;;;5028543;28;20017;-62
2023/02/03 01:02:04;;;;;;;8.20;3.17;;;;;;;;;;5023921;28;20428;-64
2023/02/03 01:04:29;;;;;;;11.70;3.35;;;;;;;;;;5026584;28;20558;-63
2023/02/03 01:06:56;;;;;;;10.23;3.03;;;;;;;;;;5029115;28;20529;-62
2023/02/03 01:09:21;;;;;;;12.48;3.30;;;;;;;;;;5031783;28;20033;-64
2023/02/03 01:11:46;;;;;;;10.20;3.60;;;;;;;;;;5032504;28;20024;-63
2023/02/03 01:14:12;;;;;;;9.63;3.08;;;;;;;;;;5030533;28;20033;-63
2023/02/03 01:16:37;;;;;;;10.68;3.03;;;;;;;;;;5034248;28;20021;-63
2023/02/03 01:19:02;;;;;;;8.13;2.47;;;;;;;;;;5038337;28;20040;-64
2023/02/03 01:21:28;;;;;;;12.80;3.15;;;;;;;;;;5031545;28;20026;-65
2023/02/03 01:23:53;;;;;;;9.30;2.92;;;;;;;;;;5030861;28;20116;-65
2023/02/03 01:26:19;;;;;;;9.27;3.15;;;;;;;;;;5031740;28;20045;-64
2023/02/03 01:28:51;;;;;;;9.00;3.15;;;;;;;;;;5031517;28;20045;-62
2023/02/03 01:31:18;;;;;;;9.80;2.60;;;;;;;;;;5031527;28;20051;-64
2023/02/03 01:33:46;;;;;;;11.70;2.60;;;;;;;;;;5030334;28;20033;-63
2023/02/03 01:36:12;;;;;;;9.77;2.30;;;;;;;;;;5031847;28;20441;-63
2023/02/03 01:38:37;;;;;;;7.03;2.30;;;;;;;;;;5033187;28;20029;-63
2023/02/03 01:41:04;;;;;;;7.57;1.90;;;;;;;;;;5033264;28;20036;-62
2023/02/03 01:43:30;;;;;;;5.80;1.50;;;;;;;;;;5033743;28;20029;-63
2023/02/03 01:45:55;;;;;;;7.28;1.40;;;;;;;;;;5033116;28;20022;-62
2023/02/03 01:48:21;;;;;;;5.65;1.58;;;;;;;;;;5033422;28;20044;-63
2023/02/03 01:50:46;;;;;;;6.45;1.25;;;;;;;;;;5030801;28;20040;-63
2023/02/03 01:53:11;;;;;;;7.03;1.57;;;;;;;;;;5032708;28;20036;-62
2023/02/03 01:55:37;;;;;;;7.97;1.57;;;;;;;;;;5033456;28;20409;-63
2023/02/03 01:58:11;;;;;;;6.28;1.33;;;;;;;;;;5032353;28;20227;-63
2023/02/03 02:00:36;;;;;;;8.48;1.63;;;;;;;;;;5027565;28;20513;-63
2023/02/03 02:03:02;;;;;;;7.40;1.70;;;;;;;;;;5032339;28;20033;-64
2023/02/03 02:05:33;;;;;;;6.30;1.60;;;;;;;;;;5033158;28;20129;-62
2023/02/03 02:07:59;;;;;;;7.00;1.60;;;;;;;;;;5031007;28;20422;-62
2023/02/03 02:10:25;;;;;;;5.60;1.55;;;;;;;;;;5031673;28;20047;-63
2023/02/03 02:12:50;;;;;;;8.63;2.00;;;;;;;;;;5031477;28;20044;-63
2023/02/03 02:15:16;;;;;;;8.88;2.28;;;;;;;;;;5032382;28;20028;-63
2023/02/03 02:18:00;;;;;;;10.55;2.30;;;;;;;;;;5031179;28;20025;-63
2023/02/03 02:20:31;;;;;;;5.32;1.70;;;;;;;;;;5032477;28;20037;-64
2023/02/03 02:23:15;;;;;;;9.70;2.00;;;;;;;;;;5031905;28;20076;-63
2023/02/03 02:25:46;;;;;;;5.45;1.58;;;;;;;;;;5031308;28;20092;-62
2023/02/03 02:28:37;;;;;;;7.22;1.80;;;;;;;;;;5030668;28;20028;-62
2023/02/03 02:31:02;;;;;;;6.70;2.47;;;;;;;;;;5027858;28;20067;-63
2023/02/03 02:33:34;;;;;;;9.18;2.50;;;;;;;;;;5031953;28;20087;-64
2023/02/03 02:36:07;;;;;;;8.15;2.65;;;;;;;;;;5029981;28;20021;-63
2023/02/03 02:38:37;;;;;;;8.18;2.53;;;;;;;;;;5031319;28;20029;-63
2023/02/03 02:41:05;;;;;;;8.52;2.20;;;;;;;;;;5027627;28;20031;-63
2023/02/03 02:43:48;;;;;;;7.93;2.45;;;;;;;;;;5030085;28;20033;-62
2023/02/03 02:46:16;;;;;;;9.20;2.80;;;;;;;;;;5029824;28;20401;-61
2023/02/03 02:48:51;;;;;;;10.27;2.88;;;;;;;;;;5034230;28;20021;-62
2023/02/03 02:51:17;;;;;;;9.65;2.80;;;;;;;;;;5033175;28;20079;-63
2023/02/03 02:53:46;;;;;;;10.15;2.63;;;;;;;;;;5032271;28;20485;-64
2023/02/03 02:56:12;;;;;;;8.88;2.47;;;;;;;;;;5026343;28;20025;-63
2023/02/03 02:58:38;;;;;;;8.45;2.58;;;;;;;;;;5031597;28;20024;-62
2023/02/03 03:01:05;;;;;;;7.68;2.47;;;;;;;;;;5031838;28;20075;-62
2023/02/03 03:03:30;;;;;;;9.80;3.10;;;;;;;;;;5029760;28;20043;-62
2023/02/03 03:06:00;;;;;;;7.55;3.30;;;;;;;;;;5031798;28;20025;-62
2023/02/03 03:08:30;;;;;;;8.40;2.22;;;;;;;;;;5033416;28;20075;-62
2023/02/03 03:10:56;;;;;;;6.90;2.20;;;;;;;;;;5034878;28;20017;-63
2023/02/03 03:13:23;;;;;;;9.00;2.10;;;;;;;;;;5029740;28;20033;-62
2023/02/03 03:15:48;;;;;;;;;;;;;;;;;;5032771;28;20029;-62
2023/02/03 03:18:35;;;;;;;7.15;1.90;;;;;;;;;;5031824;28;20063;-63
2023/02/03 03:21:05;;;;;;;6.93;2.20;;;;;;;;;;5015449;28;20040;-61
2023/02/03 03:23:32;;;;;;;7.93;2.10;;;;;;;;;;5005981;28;20026;-62
2023/02/03 03:26:04;;;;;;;8.07;2.22;;;;;;;;;;5030572;28;20107;-62
2023/02/03 03:28:32;;;;;;;6.35;1.90;;;;;;;;;;5030074;28;20037;-61
2023/02/03 03:30:57;;;;;;;7.53;2.58;;;;;;;;;;5026089;28;20028;-62
2023/02/03 03:33:22;;;;;;;7.05;2.00;;;;;;;;;;5031483;28;20033;-63
2023/02/03 03:35:51;;;;;;;7.18;2.33;;;;;;;;;;5031330;28;20808;-62
2023/02/03 03:38:21;;;;;;;7.40;2.08;;;;;;;;;;5031295;28;20021;-62
2023/02/03 03:40:50;;;;;;;8.32;2.28;;;;;;;;;;5029813;28;20071;-63
2023/02/03 03:43:17;;;;;;;6.22;2.10;;;;;;;;;;5030777;28;20474;-62
2023/02/03 03:45:42;;;;;;;;;;;;;;;;;;5030145;28;20076;-62
2023/02/03 03:48:10;;;;;;;5.43;1.90;;;;;;;;;;5031486;28;19955;-62
2023/02/03 03:50:38;;;;;;;6.57;2.15;;;;;;;;;;5031456;28;20458;-64
2023/02/03 03:53:04;;;;;;;6.30;2.05;;;;;;;;;;5031734;28;20038;-63
2023/02/03 03:55:31;;;;;;;5.55;1.90;;;;;;;;;;5029874;28;20123;-62
2023/02/03 03:57:58;;;;;;;5.18;1.90;;;;;;;;;;5029675;28;20101;-62
2023/02/03 04:00:25;;;;;;;5.75;2.15;;;;;;;;;;5029480;28;20037;-62
2023/02/03 04:02:51;;;;;;;5.60;1.60;;;;;;;;;;5027292;28;20035;-64
2023/02/03 04:05:17;;;;;;;8.38;2.20;;;;;;;;;;5029926;28;20489;-63
2023/02/03 04:07:44;;;;;;;6.57;2.00;;;;;;;;;;5030774;28;20031;-63
2023/02/03 04:10:13;;;;;;;5.55;1.90;;;;;;;;;;5026467;28;20055;-62
2023/02/03 04:12:38;;;;;;;6.63;1.98;;;;;;;;;;5020157;28;20082;-63
2023/02/03 04:15:03;;;;;;;5.90;1.87;;;;;;;;;;5027926;28;20429;-62
2023/02/03 04:17:28;;;;;;;7.83;2.77;;;;;;;;;;5030322;28;20022;-63
2023/02/03 04:19:53;;;;;;;6.95;2.45;;;;;;;;;;5029062;28;20155;-62
2023/02/03 04:22:18;;;;;;;7.27;2.67;;;;;;;;;;5027012;28;20088;-63
2023/02/03 04:24:44;;;;;;;7.20;2.88;;;;;;;;;;5024128;28;20041;-62
2023/02/03 04:27:09;;;;;;;6.63;3.00;;;;;;;;;;5029168;28;20029;-64
2023/02/03 04:29:34;;;;;;;7.63;2.83;;;;;;;;;;5028447;28;20093;-62
2023/02/03 04:31:59;;;;;;;7.65;3.15;;;;;;;;;;5028457;28;20025;-63
2023/02/03 04:34:24;;;;;;;7.90;3.33;;;;;;;;;;5027237;28;20026;-62
2023/02/03 04:36:49;;;;;;;7.30;3.23;;;;;;;;;;5025345;28;20033;-63
2023/02/03 04:39:14;;;;;;;7.53;3.30;;;;;;;;;;5027574;28;20028;-62
2023/02/03 04:41:40;;;;;;;7.83;3.30;;;;;;;;;;5029275;28;20020;-62
2023/02/03 04:44:05;;;;;;;7.35;3.17;;;;;;;;;;5028765;28;20116;-63
2023/02/03 04:46:30;;;;;;;7.32;3.30;;;;;;;;;;5028783;28;20060;-64
2023/02/03 04:48:56;;;;;;;8.00;3.30;;;;;;;;;;5029692;28;20045;-64
2023/02/03 04:51:21;;;;;;;8.10;3.45;;;;;;;;;;5028679;28;20168;-63
2023/02/03 04:53:46;;;;;;;8.82;3.45;;;;;;;;;;5029947;28;20511;-63
2023/02/03 04:56:11;;;;;;;8.13;3.63;;;;;;;;;;5042453;28;20033;-62
2023/02/03 04:58:36;;;;;;;8.05;3.70;;;;;;;;;;5037588;28;20033;-63
2023/02/03 05:01:06;;;;;;;8.93;3.90;;;;;;;;;;5028893;28;20467;-63
2023/02/03 05:03:31;;;;;;;7.80;3.65;;;;;;;;;;5029679;28;20037;-62
2023/02/03 05:05:57;;;;;;;8.40;3.40;;;;;;;;;;5028970;28;20431;-63
2023/02/03 05:08:22;;;;;;;8.55;3.47;;;;;;;;;;5029545;28;20033;-63
2023/02/03 05:10:47;;;;;;;7.57;3.70;;;;;;;;;;5028098;28;20104;-62
2023/02/03 05:13:13;;;;;;;8.70;3.80;;;;;;;;;;5030673;28;21104;-62
2023/02/03 05:15:38;;;;;;;7.37;3.77;;;;;;;;;;5027883;28;20020;-63
2023/02/03 05:18:03;;;;;;;7.30;3.58;;;;;;;;;;5029380;28;20028;-62
2023/02/03 05:20:28;;;;;;;7.43;3.90;;;;;;;;;;5030467;28;20052;-62
2023/02/03 05:22:53;;;;;;;7.88;3.72;;;;;;;;;;5028240;28;20443;-63
2023/02/03 05:25:18;;;;;;;7.82;3.70;;;;;;;;;;5030041;28;20022;-63
2023/02/03 05:27:44;;;;;;;6.82;3.25;;;;;;;;;;5033016;28;20032;-64
2023/02/03 05:30:09;;;;;;;9.97;4.03;;;;;;;;;;5032497;28;20506;-63
2023/02/03 05:32:34;;;;;;;7.90;3.60;;;;;;;;;;5031331;28;20032;-63
2023/02/03 05:35:00;;;;;;;8.60;4.05;;;;;;;;;;5025491;28;20108;-63
2023/02/03 05:37:25;;;;;;;8.95;4.28;;;;;;;;;;5024577;28;20104;-62
2023/02/03 05:39:50;;;;;;;8.15;4.40;;;;;;;;;;5023993;28;20021;-62
2023/02/03 05:42:15;;;;;;;9.35;4.25;;;;;;;;;;5025135;28;20486;-63
2023/02/03 05:44:40;;;;;;;11.80;4.60;;;;;;;;;;5025375;28;20025;-62
2023/02/03 05:47:06;;;;;;;9.82;3.90;;;;;;;;;;5026319;28;20140;-63
2023/02/03 05:49:31;;;;;;;8.50;3.83;;;;;;;;;;5024904;28;20109;-63
2023/02/03 05:51:56;;;;;;;8.87;4.30;;;;;;;;;;5023955;28;20033;-61
2023/02/03 05:54:21;;;;;;;8.93;4.10;;;;;;;;;;5026389;28;20032;-62
2023/02/03 05:56:47;;;;;;;9.25;3.88;;;;;;;;;;5029517;28;20114;-63
2023/02/03 05:59:12;;;;;;;7.18;3.83;;;;;;;;;;5027109;28;20057;-62
2023/02/03 06:01:37;;;;;;;7.75;4.13;;;;;;;;;;5021262;28;20033;-65
2023/02/03 06:04:03;;;;;;;9.18;4.20;;;;;;;;;;5027554;28;20041;-64
2023/02/03 06:06:32;;;;;;;9.18;4.00;;;;;;;;;;5026808;28;20040;-63
2023/02/03 06:08:58;;;;;;;8.82;4.30;;;;;;;;;;5028441;28;20108;-62
2023/02/03 06:11:23;;;;;;;7.95;4.40;;;;;;;;;;5030683;28;20398;-62
2023/02/03 06:13:49;;;;;;;10.83;4.17;;;;;;;;;;5027597;28;20025;-63
2023/02/03 06:16:14;;;;;;;7.95;4.15;;;;;;;;;;5029379;28;20040;-63
2023/02/03 06:18:39;;;;;;;8.27;4.23;;;;;;;;;;5031390;28;20029;-62
2023/02/03 06:21:04;;;;;;;9.25;4.50;;;;;;;;;;5029546;28;20021;-63
2023/02/03 06:23:30;;;;;;;9.17;4.50;;;;;;;;;;5031969;28;20030;-62
2023/02/03 06:25:55;;;;;;;10.15;4.55;;;;;;;;;;5031270;28;20108;-63
2023/02/03 06:28:20;;;;;;;8.35;3.83;;;;;;;;;;5029937;28;20533;-63
2023/02/03 06:30:48;;;;;;;8.38;4.32;;;;;;;;;;5029712;28;20032;-63
2023/02/03 06:33:13;;;;;;;7.28;3.80;;;;;;;;;;5029888;28;20030;-62
2023/02/03 06:35:38;;;;;;;7.93;3.90;;;;;;;;;;5031206;28;20025;-63
2023/02/03 06:38:03;;;;;;;9.70;4.68;;;;;;;;;;5032156;28;20025;-62
2023/02/03 06:40:28;;;;;;;7.80;3.60;;;;;;;;;;5032358;28;20516;-63
2023/02/03 06:42:53;;;;;;;6.53;3.63;;;;;;;;;;5031402;28;20022;-62
2023/02/03 06:45:19;;;;;;;6.65;3.38;;;;;;;;;;5029904;28;20108;-62
2023/02/03 06:47:44;;;;;;;7.78;3.40;;;;;;;;;;5031780;28;20017;-62
2023/02/03 06:50:10;;;;;;;7.75;3.60;;;;;;;;;;5031131;28;20048;-62
2023/02/03 06:52:36;;;;;;;7.30;3.60;;;;;;;;;;5031730;28;20080;-63
2023/02/03 06:55:02;;;;;;;7.13;3.67;;;;;;;;;;5033657;28;20029;-63
2023/02/03 06:57:27;;;;;;;7.10;3.40;;;;;;;;;;5034590;28;20025;-62
2023/02/03 06:59:52;;;;;;;6.80;3.33;;;;;;;;;;5029965;28;20083;-63
2023/02/03 07:02:17;;;;;;;9.50;3.50;;;;;;;;;;5032210;28;20039;-62
2023/02/03 07:04:44;;;;;;;9.70;3.90;;;;;;;;;;5031425;28;20104;-62
2023/02/03 07:07:09;;;;;;;6.90;3.35;;;;;;;;;;5030364;28;20025;-63
2023/02/03 07:09:34;;;;;;;8.40;3.70;;;;;;;;;;5031993;28;20097;-63
2023/02/03 07:11:59;;;;;;;8.55;3.53;;;;;;;;;;5032299;28;20374;-63
2023/02/03 07:14:24;;;;;;;8.35;3.78;;;;;;;;;;5030813;28;20022;-63
2023/02/03 07:16:50;;;;;;;7.72;3.90;;;;;;;;;;5031032;28;20026;-63
2023/02/03 07:19:15;;;;;;;7.82;3.72;;;;;;;;;;5031863;28;20442;-62
2023/02/03 07:21:40;;;;;;;7.72;3.92;;;;;;;;;;5031239;28;20021;-64
2023/02/03 07:24:05;;;;;;;9.35;3.47;;;;;;;;;;5031197;28;20042;-63
2023/02/03 07:26:30;;;;;;;7.93;3.47;;;;;;;;;;5031853;28;20560;-62
2023/02/03 07:28:58;;;;;;;7.20;3.33;;;;;;;;;;5029454;28;20489;-63
2023/02/03 07:31:23;;;;;;;7.22;3.45;;;;;;;;;;5031621;28;20029;-63
2023/02/03 07:33:49;;;;;;;8.00;3.60;;;;;;;;;;5032342;28;20013;-63
2023/02/03 07:36:14;;;;;;;7.18;3.30;;;;;;;;;;5031235;28;20474;-62
2023/02/03 07:38:39;;;;;;;6.50;3.10;;;;;;;;;;5031904;28;20040;-62
2023/02/03 07:41:05;;;;;;;8.63;3.50;;;;;;;;;;5030854;28;20036;-62
2023/02/03 07:43:30;;;;;;;6.63;2.97;;;;;;;;;;5032202;28;20675;-66
2023/02/03 07:45:55;;;;;;;7.78;3.15;;;;;;;;;;5029877;28;20013;-68
2023/02/03 07:48:20;;;;;;;5.67;2.93;;;;;;;;;;5020824;28;20029;-66
2023/02/03 07:50:46;;;;;;;6.00;2.70;;;;;;;;;;5024364;28;20372;-65
2023/02/03 07:53:11;;;;;;;4.82;2.47;;;;;;;;;;5030734;28;20056;-66
2023/02/03 07:55:37;;;;;;;6.28;2.80;;;;;;;;;;5030256;28;20041;-65
2023/02/03 07:58:02;;;;;;;6.43;2.50;;;;;;;;;;5029091;28;20048;-67
2023/02/03 08:00:27;;;;;;;6.88;2.63;;;;;;;;;;5029258;28;20017;-65
2023/02/03 08:02:52;;;;;;;5.53;2.53;;;;;;;;;;5030432;28;20234;-63
2023/02/03 08:05:18;;;;;;;7.82;3.03;;;;;;;;;;5030904;28;20032;-63
2023/02/03 08:07:43;;;;;;;5.70;2.53;;;;;;;;;;5030207;28;20025;-61
2023/02/03 08:10:09;;;;;;;6.03;2.40;;;;;;;;;;5030607;28;20037;-61
2023/02/03 08:12:34;;;;;;;5.25;2.45;;;;;;;;;;5030740;28;20071;-62
2023/02/03 08:14:59;;;;;;;5.33;2.50;;;;;;;;;;5029445;28;20017;-63
2023/02/03 08:17:25;;;;;;;4.73;2.37;;;;;;;;;;5030347;28;20033;-62
2023/02/03 08:19:50;;;;;;;5.90;2.57;;;;;;;;;;5030345;28;20025;-62
2023/02/03 08:22:15;;;;;;;6.60;2.00;;;;;;;;;;5029674;28;20421;-62
2023/02/03 08:24:44;;;;;;;4.70;2.10;;;;;;;;;;5031081;28;20021;-62
2023/02/03 08:27:28;;;;;;;5.45;2.17;;;;;;;;;;5030821;28;20025;-62
2023/02/03 08:29:53;;;;;;;7.53;2.00;;;;;;;;;;5029253;28;20029;-62
2023/02/03 08:32:20;;;;;;;6.00;2.30;;;;;;;;;;5029683;28;20513;-62
2023/02/03 08:34:45;;;;;;;;;;;;;;;;;;5032014;28;20025;-62
2023/02/03 08:37:12;;;;;;;4.40;1.88;;;;;;;;;;5029852;28;19928;-61
2023/02/03 08:39:37;;;;;;;;;;;;;;;;;;5029328;28;20467;-62
2023/02/03 08:42:03;;;;;;;5.43;1.90;;;;;;;;;;5030517;28;20354;-62
2023/02/03 08:44:28;;;;;;;7.10;1.90;;;;;;;;;;5030009;28;20045;-62
2023/02/03 08:46:53;;;;;;;4.18;1.75;;;;;;;;;;5032977;28;20026;-62
2023/02/03 08:49:19;;;;;;;5.53;2.20;;;;;;;;;;5031224;28;20013;-61
2023/02/03 08:51:45;;;;;;;5.43;2.05;;;;;;;;;;5030421;28;20113;-62
2023/02/03 08:54:10;;;;;;;5.93;2.20;;;;;;;;;;5030426;28;20032;-62
2023/02/03 08:56:35;;;;;;;4.80;2.10;;;;;;;;;;5029516;28;20041;-63
2023/02/03 08:59:00;;;;;;;5.23;2.40;;;;;;;;;;5029855;28;20037;-61
2023/02/03 09:01:25;;;;;;;5.90;2.10;;;;;;;;;;5029351;28;20040;-62
2023/02/03 09:03:51;;;;;;;4.80;1.90;;;;;;;;;;5030396;28;20026;-61
2023/02/03 09:06:16;;;;;;;5.90;2.10;;;;;;;;;;5031018;28;20630;-64
2023/02/03 09:08:42;;;;;;;6.35;2.20;;;;;;;;;;5030880;28;20108;-62
2023/02/03 09:11:14;;;;;;;4.97;1.92;;;;;;;;;;5028844;28;20073;-62
2023/02/03 09:13:44;;;;;;;6.55;2.40;;;;;;;;;;5029824;28;20041;-62
2023/02/03 09:16:09;;;;;;;8.52;2.40;;;;;;;;;;5030378;28;20026;-63
2023/02/03 09:18:34;;;;;;;4.87;2.20;;;;;;;;;;5030856;28;20443;-62
2023/02/03 09:21:03;;;;;;;5.18;2.03;;;;;;;;;;5032154;28;20025;-61
2023/02/03 09:23:28;;;;;;;5.50;2.20;;;;;;;;;;5030414;28;20044;-66
2023/02/03 09:25:53;;;;;;;4.70;2.23;;;;;;;;;;5030512;28;20026;-62
2023/02/03 09:28:18;;;;;;;5.20;2.33;;;;;;;;;;5029875;28;20076;-61
2023/02/03 09:30:44;;;;;;;6.53;2.33;;;;;;;;;;5032885;28;20021;-62
2023/02/03 09:33:09;;;;;;;5.55;2.25;;;;;;;;;;5034092;28;20036;-62
2023/02/03 09:35:34;;;;;;;6.23;2.50;;;;;;;;;;5034095;28;20520;-62
2023/02/03 09:38:00;;;;;;;6.00;2.17;;;;;;;;;;5033261;28;20024;-62
2023/02/03 09:40:31;;;;;;;6.22;2.47;;;;;;;;;;5037924;28;20017;-63
2023/02/03 09:43:05;;;;;;;6.43;2.42;;;;;;;;;;5032710;28;20040;-62
2023/02/03 09:45:30;;;;;;;6.07;2.35;;;;;;;;;;5026552;28;20017;-61
2023/02/03 09:47:58;;;;;;;5.65;2.40;;;;;;;;;;5034081;28;20410;-63
2023/02/03 09:50:25;;;;;;;6.30;2.30;;;;;;;;;;5032973;28;20419;-62
2023/02/03 09:52:51;;;;;;;6.85;2.28;;;;;;;;;;5033156;28;20022;-64
2023/02/03 09:55:37;;;;;;;6.70;2.42;;;;;;;;;;5033385;28;20020;-62
2023/02/03 09:58:21;;;;;;;5.53;2.20;;;;;;;;;;5029111;28;20453;-63
2023/02/03 10:00:51;;;;;;;6.20;2.47;;;;;;;;;;5032691;28;20497;-63
2023/02/03 10:03:20;;;;;;;4.68;2.05;;;;;;;;;;5033649;28;20025;-62
2023/02/03 10:05:48;;;;;;;6.57;2.33;;;;;;;;;;5034079;28;20026;-61
2023/02/03 10:08:16;;;;;;;8.25;2.80;;;;;;;;;;5031306;28;20082;-62
2023/02/03 10:11:08;;;;;;;8.48;2.80;;;;;;;;;;5032309;28;20025;-62
2023/02/03 10:13:36;;;;;;;5.47;2.35;;;;;;;;;;5025051;28;20029;-63
2023/02/03 10:16:07;;;;;;;8.52;2.63;;;;;;;;;;5033641;28;20060;-63
2023/02/03 10:18:37;;;;;;;6.20;2.60;;;;;;;;;;5032867;28;20051;-62
2023/02/03 10:21:04;;;;;;;5.13;2.55;;;;;;;;;;5032454;28;20021;-62
2023/02/03 10:23:32;;;;;;;6.00;2.20;;;;;;;;;;5032568;28;20439;-61
2023/02/03 10:25:59;;;;;;;5.22;2.15;;;;;;;;;;5033240;28;20372;-63
2023/02/03 10:28:24;;;;;;;;;;;;;;;;;;5032710;28;20017;-62
2023/02/03 10:31:12;;;;;;;7.00;2.60;;;;;;;;;;5032298;28;19913;-63
2023/02/03 10:33:37;;;;;;;6.63;2.75;;;;;;;;;;5032986;28;20037;-63
2023/02/03 10:36:16;;;;;;;7.20;2.40;;;;;;;;;;5035724;28;20029;-62
2023/02/03 10:38:47;;;;;;;5.70;2.42;;;;;;;;;;5032115;28;20037;-62
2023/02/03 10:41:13;;;;;;;8.10;2.22;;;;;;;;;;5031074;28;20108;-62
2023/02/03 10:43:50;;;;;;;6.07;2.17;;;;;;;;;;5031651;28;20033;-62
2023/02/03 10:46:16;;;;;;;6.47;2.13;;;;;;;;;;5034214;28;20021;-62
2023/02/03 10:48:41;;;;;;;6.50;2.08;;;;;;;;;;5034901;28;20039;-61
2023/02/03 10:51:26;;;;;;;5.00;2.33;;;;;;;;;;5032854;28;20108;-62
2023/02/03 10:53:52;;;;;;;6.18;2.00;;;;;;;;;;5032727;28;20025;-63
2023/02/03 10:56:19;;;;;;;6.65;2.47;;;;;;;;;;5036274;28;20471;-62
2023/02/03 10:58:49;;;;;;;7.80;2.17;;;;;;;;;;5036083;28;20045;-63
2023/02/03 11:01:15;;;;;;;5.35;1.90;;;;;;;;;;5032977;28;20021;-63
2023/02/03 11:03:42;;;;;;;4.90;1.95;;;;;;;;;;5031551;28;20135;-61
2023/02/03 11:06:14;;;;;;;9.73;2.22;;;;;;;;;;5030457;28;20532;-63
2023/02/03 11:08:43;;;;;;;4.35;1.98;;;;;;;;;;5031892;28;20498;-62
2023/02/03 11:11:12;;;;;;;6.55;1.80;;;;;;;;;;5030998;28;20029;-62
2023/02/03 11:13:37;;;;;;;5.28;1.65;;;;;;;;;;5032350;28;20118;-63
2023/02/03 11:16:11;;;;;;;5.72;2.13;;;;;;;;;;5031519;28;20108;-62
2023/02/03 11:18:36;;;;;;;4.93;1.70;;;;;;;;;;5029466;28;20033;-63
2023/02/03 11:21:27;;;;;;;5.68;1.92;;;;;;;;;;5030255;28;20090;-63
2023/02/03 11:23:56;;;;;;;6.40;2.00;;;;;;;;;;4995707;28;20399;-64
2023/02/03 11:26:24;;;;;;;6.13;1.83;;;;;;;;;;5032870;28;20021;-63
2023/02/03 11:28:50;;;;;;;7.18;2.33;;;;;;;;;;5031740;28;20462;-62
2023/02/03 11:31:16;;;;;;;5.30;2.10;;;;;;;;;;5030096;28;20028;-62
2023/02/03 11:33:45;;;;;;;6.35;1.90;;;;;;;;;;5032416;28;20017;-63
2023/02/03 11:36:10;;;;;;;5.10;2.28;;;;;;;;;;5030803;28;20029;-62
2023/02/03 11:38:36;;;;;;;6.95;2.00;;;;;;;;;;5032595;28;20033;-63
2023/02/03 11:41:01;;;;;;;6.28;2.03;;;;;;;;;;5032679;28;20017;-63
2023/02/03 11:43:30;;;;;;;6.63;1.70;;;;;;;;;;5031759;28;20040;-62
2023/02/03 11:46:14;;;;;;;5.13;1.92;;;;;;;;;;5030773;28;20033;-62
2023/02/03 11:48:45;;;;;;;4.75;1.85;;;;;;;;;;5012001;28;20025;-63
2023/02/03 11:51:16;;;;;;;4.22;1.85;;;;;;;;;;5023536;28;20021;-63
2023/02/03 11:54:04;;;;;;;4.82;1.58;;;;;;;;;;5031354;28;20021;-62
2023/02/03 11:56:45;;;;;;;3.30;1.30;;;;;;;;;;4986631;28;20033;-63
2023/02/03 11:59:17;;;;;;;3.97;1.38;;;;;;;;;;5032848;28;20025;-64
2023/02/03 12:01:43;;;;;;;3.20;1.40;;;;;;;;;;5030238;28;20064;-62
2023/02/03 12:04:14;;;;;;;4.20;1.60;;;;;;;;;;5031139;28;20053;-63
2023/02/03 12:07:04;;;;;;;4.47;1.30;;;;;;;;;;5037499;28;20033;-63
2023/02/03 12:09:29;;;;;;;4.65;1.70;;;;;;;;;;5035940;28;20029;-62
2023/02/03 12:12:03;;;;;;;3.43;1.17;;;;;;;;;;5045688;28;20025;-63
2023/02/03 12:14:42;;;;;;;4.50;1.40;;;;;;;;;;5043023;28;20486;-62
2023/02/03 12:17:25;;;;;;;4.18;1.20;;;;;;;;;;5042103;28;20047;-63
2023/02/03 12:20:01;;;;;;;4.80;1.10;;;;;;;;;;5036942;28;20593;-64
2023/02/03 12:22:47;;;;;;;3.53;1.13;;;;;;;;;;5039180;28;20073;-63
2023/02/03 12:25:18;;;;;;;3.50;1.10;;;;;;;;;;5035159;28;20036;-64
2023/02/03 12:28:03;;;;;;;3.70;1.00;;;;;;;;;;5036399;28;20486;-64
2023/02/03 12:30:39;;;;;;;3.50;1.10;;;;;;;;;;5025233;28;20028;-63
2023/02/03 12:33:12;;;;;;;3.30;0.90;;;;;;;;;;5033413;28;20026;-62
2023/02/03 12:35:58;;;;;;;3.75;1.00;;;;;;;;;;5038316;28;20100;-63
2023/02/03 12:38:36;;;;;;;2.15;0.77;;;;;;;;;;5039037;28;20440;-61
2023/02/03 12:41:06;;;;;;;3.63;0.93;;;;;;;;;;5027332;28;20056;-62
2023/02/03 12:43:37;;;;;;;2.80;0.93;;;;;;;;;;5011259;28;20042;-62
2023/02/03 12:46:02;;;;;;;3.00;0.82;;;;;;;;;;5024566;28;20028;-62
2023/02/03 12:48:41;;;;;;;5.05;0.90;;;;;;;;;;5030952;28;20021;-63
2023/02/03 12:51:08;;;;;;;3.75;0.93;;;;;;;;;;5030704;28;20395;-62
2023/02/03 12:53:36;;;;;;;3.05;1.00;;;;;;;;;;5031328;28;20032;-62
2023/02/03 12:56:09;;;;;;;2.42;1.00;;;;;;;;;;5030421;28;20029;-64
2023/02/03 12:58:40;;;;;;;3.45;0.90;;;;;;;;;;5011050;28;20036;-62
2023/02/03 13:01:08;;;;;;;5.47;0.90;;;;;;;;;;5022263;28;20017;-63
2023/02/03 13:03:41;;;;;;;4.30;0.95;;;;;;;;;;5030106;28;20041;-63
2023/02/03 13:06:13;;;;;;;3.50;0.90;;;;;;;;;;5033851;28;20434;-62
2023/02/03 13:08:58;;;;;;;3.67;1.05;;;;;;;;;;5034517;28;20026;-62
2023/02/03 13:11:35;;;;;;;6.05;1.50;;;;;;;;;;4978407;28;20029;-63
2023/02/03 13:14:06;;;;;;;3.88;1.65;;;;;;;;;;5033954;28;20040;-62
2023/02/03 13:16:34;;;;;;;5.85;1.10;;;;;;;;;;5030480;28;20316;-64
2023/02/03 13:19:05;;;;;;;5.05;1.40;;;;;;;;;;5032359;28;20546;-61
2023/02/03 13:21:30;;;;;;;4.78;1.42;;;;;;;;;;5032749;28;20014;-63
2023/02/03 13:23:55;;;;;;;7.77;1.20;;;;;;;;;;5033997;28;20034;-62
2023/02/03 20:35:41;;;;;;;16.42;4.55;;;;;;;;;;5101939;27;20518;-61
2023/02/03 20:38:06;;;;;;;14.53;2.20;;;;;;;;;;5082780;28;20047;-60
2023/02/03 20:40:31;;;;;;;16.83;2.30;;;;;;;;;;5078421;28;24423;-62
2023/02/03 20:46:40;;;;;;;16.20;2.22;;;;;;;;;;5096709;27;20550;-66
2023/02/03 20:49:12;;;;;;;12.75;1.95;;;;;;;;;;5099575;28;20561;-65
2023/02/03 20:51:37;;;;;;;12.73;1.88;;;;;;;;;;5094061;28;20118;-65
2023/02/03 20:54:04;;;;;;;15.50;2.27;;;;;;;;;;5097914;28;20488;-69
2023/02/03 20:56:29;;;;;;;17.10;2.47;;;;;;;;;;5089976;28;20027;-64
2023/02/03 20:58:54;;;;;;;12.43;2.00;;;;;;;;;;5094917;28;20017;-65
2023/02/03 21:01:20;;;;;;;14.27;2.00;;;;;;;;;;5093753;28;20020;-66
2023/02/03 21:06:30;;;;;;;12.13;2.25;;;;;;;;;;5119605;27;20054;-66
2023/02/03 21:09:17;;;;;;;15.85;2.00;;;;;;;;;;5096117;27;20021;-66
2023/02/03 21:11:42;;;;;;;16.38;1.73;;;;;;;;;;5095925;28;20076;-67
2023/02/03 21:14:19;;;;;;;15.15;2.03;;;;;;;;;;5088668;28;20035;-69
2023/02/03 21:16:46;;;;;;;15.80;1.55;;;;;;;;;;5090425;28;20015;-66
2023/02/03 21:19:13;;;;;;;15.73;2.40;;;;;;;;;;5096636;28;20043;-66
2023/02/03 21:21:41;;;;;;;21.20;2.53;;;;;;;;;;5100515;28;20027;-65
2023/02/03 21:24:15;;;;;;;13.15;2.00;;;;;;;;;;5086600;28;20533;-65
2023/02/03 21:26:40;;;;;;;15.15;1.95;;;;;;;;;;5083989;28;20036;-66
2023/02/03 21:29:13;;;;;;;10.63;1.30;;;;;;;;;;5101222;28;20023;-65
2023/02/03 21:31:38;;;;;;;17.23;2.42;;;;;;;;;;5093482;28;20035;-65
2023/02/03 21:34:16;;;;;;;10.07;1.65;;;;;;;;;;5098072;28;20357;-66
2023/02/03 21:36:41;;;;;;;12.35;1.58;;;;;;;;;;5084678;28;20084;-65
2023/02/03 21:39:22;;;;;;;12.48;1.45;;;;;;;;;;5085956;28;20111;-65
2023/02/03 21:41:47;;;;;;;14.93;1.70;;;;;;;;;;5096176;28;20035;-67
2023/02/03 21:44:24;;;;;;;12.82;2.08;;;;;;;;;;5102331;28;20019;-66
2023/02/03 21:46:49;;;;;;;12.75;1.98;;;;;;;;;;5091057;28;20520;-65
2023/02/03 21:49:14;;;;;;;10.10;1.50;;;;;;;;;;5091072;28;20019;-65
2023/02/03 21:51:40;;;;;;;11.53;1.60;;;;;;;;;;5092483;28;20120;-66
2023/02/03 21:54:14;;;;;;;16.65;1.70;;;;;;;;;;5101197;28;20035;-66
2023/02/03 21:56:40;;;;;;;14.88;2.03;;;;;;;;;;5094221;28;20028;-66
2023/02/03 21:59:15;;;;;;;9.13;1.33;;;;;;;;;;5093385;28;20026;-68
2023/02/03 22:01:41;;;;;;;13.05;1.60;;;;;;;;;;5086206;28;20020;-65
2023/02/03 22:04:07;;;;;;;15.00;1.55;;;;;;;;;;5090619;28;20027;-66